createdAt,value
2022-08-16T00:01:11.100Z,11.98
2022-08-16T00:03:40.846Z,12.60
2022-08-16T00:06:10.079Z,12.40
2022-08-16T00:08:38.238Z,12.45
2022-08-16T00:11:08.331Z,13.07
2022-08-16T00:13:53.129Z,12.32
2022-08-16T00:17:00.880Z,13.30
2022-08-16T00:19:23.490Z,12.75
2022-08-16T00:21:54.444Z,14.07
2022-08-16T00:24:31.275Z,15.57
2022-08-16T00:27:01.773Z,15.23
2022-08-16T00:29:30.214Z,16.10
2022-08-16T00:32:18.283Z,19.85
2022-08-16T00:34:54.225Z,16.70
2022-08-16T00:37:24.130Z,16.00
2022-08-16T00:39:57.107Z,15.90
2022-08-16T00:42:31.740Z,16.70
2022-08-16T00:45:09.447Z,20.55
2022-08-16T00:47:39.501Z,21.40
2022-08-16T00:50:08.197Z,22.35
2022-08-16T00:52:45.729Z,18.38
2022-08-16T00:55:20.353Z,15.30
2022-08-16T00:57:58.346Z,14.02
2022-08-16T01:00:29.091Z,15.77
2022-08-16T01:02:57.864Z,14.43
2022-08-16T01:05:25.829Z,14.93
2022-08-16T01:07:54.563Z,14.85
2022-08-16T01:10:32.436Z,15.60
2022-08-16T01:13:15.071Z,14.40
2022-08-16T01:15:56.605Z,14.40
2022-08-16T01:18:39.880Z,15.32
2022-08-16T01:21:22.833Z,15.75
2022-08-16T01:24:51.665Z,15.52
2022-08-16T01:27:09.497Z,16.60
2022-08-16T01:32:33.786Z,15.80
2022-08-16T01:35:17.009Z,17.10
2022-08-16T01:37:53.075Z,17.13
2022-08-16T01:40:29.513Z,15.38
2022-08-16T01:42:57.731Z,16.73
2022-08-16T01:45:39.832Z,16.75
2022-08-16T01:48:19.225Z,17.23
2022-08-16T01:51:09.333Z,16.63
2022-08-16T01:53:36.560Z,16.90
2022-08-16T01:56:25.416Z,16.70
2022-08-16T01:58:56.147Z,15.32
2022-08-16T02:01:26.058Z,16.98
2022-08-16T02:03:58.397Z,15.18
2022-08-16T02:06:34.530Z,14.68
2022-08-16T02:09:11.645Z,15.77
2022-08-16T02:11:48.890Z,17.80
2022-08-16T02:14:26.366Z,17.88
2022-08-16T02:16:57.187Z,18.17
2022-08-16T02:19:58.765Z,16.77
2022-08-16T02:22:46.643Z,17.17
2022-08-16T02:25:11.661Z,16.88
2022-08-16T02:27:44.022Z,16.95
2022-08-16T02:30:36.897Z,17.58
2022-08-16T02:33:04.504Z,17.95
2022-08-16T02:35:33.753Z,17.38
2022-08-16T02:38:08.646Z,18.30
2022-08-16T02:40:38.089Z,17.48
2022-08-16T02:43:07.101Z,18.20
2022-08-16T02:45:36.176Z,18.23
2022-08-16T02:48:29.370Z,18.33
2022-08-16T02:51:06.611Z,16.63
2022-08-16T02:53:45.419Z,17.55
2022-08-16T02:56:15.925Z,18.70
2022-08-16T02:58:45.410Z,17.15
2022-08-16T03:01:25.324Z,16.50
2022-08-16T03:04:29.911Z,16.63
2022-08-16T03:06:56.473Z,17.42
2022-08-16T03:09:44.238Z,16.17
2022-08-16T03:14:46.840Z,17.60
2022-08-16T03:17:16.602Z,19.15
2022-08-16T03:19:48.715Z,17.70
2022-08-16T03:22:31.755Z,17.20
2022-08-16T03:25:07.332Z,18.10
2022-08-16T03:27:39.215Z,19.65
2022-08-16T03:30:19.812Z,18.98
2022-08-16T03:32:54.213Z,18.60
2022-08-16T03:35:32.981Z,18.67
2022-08-16T03:38:33.133Z,19.05
2022-08-16T03:40:54.423Z,19.92
2022-08-16T03:43:24.545Z,19.38
2022-08-16T03:46:44.389Z,19.58
2022-08-16T03:49:04.333Z,19.88
2022-08-16T03:51:32.259Z,20.45
2022-08-16T03:54:04.884Z,20.23
2022-08-16T03:56:57.068Z,19.92
2022-08-16T03:59:29.344Z,20.02
2022-08-16T04:02:00.840Z,20.60
2022-08-16T04:04:33.024Z,20.73
2022-08-16T04:07:05.817Z,20.25
2022-08-16T04:09:38.273Z,21.83
2022-08-16T04:12:10.781Z,22.73
2022-08-16T04:14:58.326Z,21.42
2022-08-16T04:17:27.543Z,22.83
2022-08-16T04:19:58.276Z,22.67
2022-08-16T04:22:27.575Z,23.23
2022-08-16T04:25:00.132Z,23.10
2022-08-16T04:27:34.510Z,22.05
2022-08-16T04:30:04.268Z,21.83
2022-08-16T04:32:41.943Z,23.13
2022-08-16T04:35:16.403Z,22.80
2022-08-16T04:37:46.167Z,22.55
2022-08-16T04:40:22.066Z,22.48
2022-08-16T04:42:54.979Z,22.40
2022-08-16T04:45:36.155Z,22.95
2022-08-16T04:48:12.569Z,21.38
2022-08-16T04:50:59.485Z,22.20
2022-08-16T04:53:39.581Z,22.65
2022-08-16T04:56:11.305Z,21.63
2022-08-16T04:58:46.130Z,20.58
2022-08-16T05:01:18.129Z,21.02
2022-08-16T05:04:00.311Z,19.80
2022-08-16T05:06:41.950Z,20.92
2022-08-16T05:09:12.702Z,22.35
2022-08-16T05:11:40.581Z,22.23
2022-08-16T05:14:09.109Z,22.13
2022-08-16T05:16:39.208Z,23.87
2022-08-16T05:19:13.388Z,23.98
2022-08-16T05:22:04.278Z,24.52
2022-08-16T05:24:36.996Z,24.88
2022-08-16T05:27:11.508Z,25.50
2022-08-16T05:29:59.404Z,26.40
2022-08-16T05:32:32.739Z,27.65
2022-08-16T05:35:04.867Z,26.83
2022-08-16T05:37:39.483Z,28.02
2022-08-16T05:40:10.785Z,25.05
2022-08-16T05:42:46.131Z,27.10
2022-08-16T05:45:22.095Z,27.05
2022-08-16T05:47:59.490Z,25.45
2022-08-16T05:50:34.048Z,25.05
2022-08-16T05:53:03.981Z,26.67
2022-08-16T05:55:40.792Z,25.95
2022-08-16T05:58:09.392Z,26.95
2022-08-16T06:00:57.310Z,28.45
2022-08-16T06:03:29.446Z,28.60
2022-08-16T06:06:02.352Z,26.88
2022-08-16T06:08:44.688Z,23.52
2022-08-16T06:11:20.769Z,23.13
2022-08-16T06:13:56.760Z,24.63
2022-08-16T06:16:50.618Z,25.73
2022-08-16T06:19:21.242Z,24.98
2022-08-16T06:22:01.147Z,25.30
2022-08-16T06:24:54.217Z,26.40
2022-08-16T06:27:18.845Z,25.13
2022-08-16T06:29:50.351Z,25.27
2022-08-16T06:32:27.651Z,24.10
2022-08-16T06:35:02.904Z,26.75
2022-08-16T06:37:38.408Z,26.73
2022-08-16T06:40:13.035Z,27.85
2022-08-16T06:42:52.802Z,25.17
2022-08-16T06:45:43.351Z,26.13
2022-08-16T06:48:19.588Z,25.48
2022-08-16T06:51:05.540Z,28.50
2022-08-16T06:53:36.934Z,29.15
2022-08-16T06:56:14.758Z,29.15
2022-08-16T06:59:10.176Z,27.13
2022-08-16T07:01:54.469Z,27.95
2022-08-16T07:04:31.873Z,26.30
2022-08-16T07:07:06.171Z,26.27
2022-08-16T07:09:38.587Z,26.30
2022-08-16T07:12:06.959Z,26.90
2022-08-16T07:14:39.035Z,26.02
2022-08-16T07:17:08.138Z,24.35
2022-08-16T07:20:03.497Z,23.65
2022-08-16T07:22:39.677Z,20.50
2022-08-16T07:25:17.276Z,18.47
2022-08-16T07:27:47.202Z,20.50
2022-08-16T07:30:39.251Z,20.67
2022-08-16T07:33:08.115Z,21.27
2022-08-16T07:35:44.133Z,21.80
2022-08-16T07:38:17.247Z,21.90
2022-08-16T07:41:01.015Z,22.38
2022-08-16T07:43:32.559Z,23.13
2022-08-16T07:46:04.418Z,21.45
2022-08-16T07:48:37.089Z,22.80
2022-08-16T07:51:09.172Z,20.90
2022-08-16T07:53:43.428Z,19.30
2022-08-16T07:56:14.407Z,20.80
2022-08-16T07:58:44.410Z,21.23
2022-08-16T08:01:16.487Z,19.33
2022-08-16T08:03:53.312Z,19.70
2022-08-16T08:06:28.940Z,19.65
2022-08-16T08:09:01.542Z,19.38
2022-08-16T08:11:33.552Z,19.77
2022-08-16T08:14:07.946Z,19.33
2022-08-16T08:16:53.705Z,21.00
2022-08-16T08:19:27.522Z,21.13
2022-08-16T08:21:59.559Z,21.30
2022-08-16T08:25:03.946Z,21.35
2022-08-16T08:27:36.291Z,20.38
2022-08-16T08:30:49.508Z,21.90
2022-08-16T08:32:59.594Z,19.27
2022-08-16T08:35:30.635Z,19.50
2022-08-16T08:38:00.214Z,19.42
2022-08-16T08:40:29.757Z,16.90
2022-08-16T08:43:12.259Z,19.33
2022-08-16T08:45:52.807Z,18.45
2022-08-16T08:48:33.048Z,17.98
2022-08-16T08:51:17.424Z,16.92
2022-08-16T08:53:57.885Z,16.10
2022-08-16T08:56:32.319Z,15.90
2022-08-16T08:59:19.733Z,15.35
2022-08-16T09:01:58.094Z,14.90
2022-08-16T09:04:34.590Z,16.85
2022-08-16T09:07:05.217Z,13.90
2022-08-16T09:12:31.286Z,14.52
2022-08-16T09:15:06.749Z,14.13
2022-08-16T09:20:27.410Z,13.57
2022-08-16T09:22:56.150Z,14.55
2022-08-16T09:25:34.254Z,14.95
2022-08-16T09:28:10.501Z,12.88
2022-08-16T09:30:50.854Z,13.23
2022-08-16T09:33:20.070Z,11.70
2022-08-16T09:35:53.285Z,11.80
2022-08-16T09:38:31.857Z,13.45
2022-08-16T09:41:01.040Z,11.63
2022-08-16T09:43:58.857Z,12.77
2022-08-16T09:46:44.418Z,13.65
2022-08-16T09:49:05.329Z,14.15
2022-08-16T09:51:38.271Z,13.40
2022-08-16T09:54:09.605Z,13.40
2022-08-16T09:56:38.832Z,12.82
2022-08-16T09:59:08.474Z,12.05
2022-08-16T10:01:37.111Z,12.45
2022-08-16T10:04:29.769Z,13.70
2022-08-16T10:09:45.071Z,13.15
2022-08-16T10:15:15.455Z,11.27
2022-08-16T10:18:01.401Z,11.27
2022-08-16T10:20:35.216Z,12.43
2022-08-16T10:23:07.312Z,12.18
2022-08-16T10:28:28.240Z,12.40
2022-08-16T10:30:59.536Z,12.15
2022-08-16T10:33:29.297Z,12.38
2022-08-16T10:36:02.547Z,13.23
2022-08-16T10:38:32.901Z,13.68
2022-08-16T10:41:08.315Z,13.50
2022-08-16T10:43:38.496Z,13.30
2022-08-16T10:46:33.722Z,13.07
2022-08-16T10:48:56.553Z,13.37
2022-08-16T10:51:34.402Z,13.38
2022-08-16T10:54:28.350Z,13.77
2022-08-16T10:56:57.225Z,12.63
2022-08-16T10:59:39.230Z,13.75
2022-08-16T11:02:59.479Z,13.20
2022-08-16T11:05:06.796Z,13.20
2022-08-16T11:07:45.103Z,13.45
2022-08-16T11:11:04.832Z,12.70
2022-08-16T11:16:01.199Z,13.32
2022-08-16T11:19:04.872Z,12.40
2022-08-16T11:21:28.538Z,12.75
2022-08-16T11:23:59.635Z,12.18
2022-08-16T11:26:27.788Z,11.20
2022-08-16T11:29:13.926Z,12.68
2022-08-16T11:31:45.647Z,11.23
2022-08-16T11:34:14.397Z,10.68
2022-08-16T11:36:53.938Z,9.98
2022-08-16T11:39:30.251Z,9.88
2022-08-16T11:41:59.684Z,9.93
2022-08-16T11:44:51.948Z,9.65
2022-08-16T11:47:15.289Z,8.65
2022-08-16T11:49:44.201Z,9.18
2022-08-16T11:52:14.152Z,9.05
2022-08-16T11:54:45.994Z,8.90
2022-08-16T11:57:21.560Z,8.90
2022-08-16T11:59:49.619Z,8.55
2022-08-16T12:02:32.155Z,8.55
2022-08-16T12:05:00.932Z,8.55
2022-08-16T12:07:28.821Z,9.15
2022-08-16T12:09:59.807Z,9.88
2022-08-16T12:12:29.057Z,9.13
2022-08-16T12:14:59.985Z,8.45
2022-08-16T12:17:31.829Z,8.23
2022-08-16T12:20:01.319Z,7.70
2022-08-16T12:22:29.260Z,8.43
2022-08-16T12:24:56.879Z,8.30
2022-08-16T12:27:25.162Z,7.80
2022-08-16T12:29:53.330Z,7.03
2022-08-16T12:32:38.383Z,7.57
2022-08-16T12:35:10.858Z,7.13
2022-08-16T12:37:39.350Z,7.97
2022-08-16T12:40:19.753Z,7.73
2022-08-16T12:42:54.518Z,7.72
2022-08-16T12:45:26.716Z,7.22
2022-08-16T12:48:34.235Z,8.10
2022-08-16T12:51:13.497Z,7.97
2022-08-16T12:53:48.093Z,9.13
2022-08-16T12:56:18.869Z,8.77
2022-08-16T12:58:52.025Z,8.10
2022-08-16T13:01:26.168Z,8.35
2022-08-16T13:04:12.043Z,7.18
2022-08-16T13:06:43.604Z,8.50
2022-08-16T13:09:32.002Z,7.60
2022-08-16T13:12:23.405Z,7.38
2022-08-16T13:14:52.972Z,7.35
2022-08-16T13:17:26.294Z,7.82
2022-08-16T13:20:11.174Z,7.75
2022-08-16T13:22:44.974Z,8.30
2022-08-16T13:25:19.484Z,8.07
2022-08-16T13:28:01.788Z,7.97
2022-08-16T13:30:35.922Z,7.43
2022-08-16T13:33:11.212Z,6.90
2022-08-16T13:35:43.490Z,7.20
2022-08-16T13:43:28.879Z,6.10
2022-08-16T13:46:04.451Z,6.38
2022-08-16T13:48:42.885Z,6.20
2022-08-16T13:51:18.050Z,6.63
2022-08-16T13:53:54.248Z,6.82
2022-08-16T13:56:34.447Z,6.60
2022-08-16T13:59:20.543Z,7.32
2022-08-16T14:01:55.891Z,6.25
2022-08-16T14:04:26.786Z,7.15
2022-08-16T14:06:56.667Z,7.05
2022-08-16T14:09:24.572Z,7.20
2022-08-16T14:11:58.427Z,6.93
2022-08-16T14:14:29.769Z,7.28
2022-08-16T14:17:01.786Z,7.28
2022-08-16T14:19:30.175Z,7.82
2022-08-16T14:22:14.862Z,7.05
2022-08-16T14:24:45.341Z,6.75
2022-08-16T14:27:17.104Z,7.20
2022-08-16T14:29:49.249Z,7.15
2022-08-16T14:32:32.429Z,6.70
2022-08-16T14:35:07.826Z,6.05
2022-08-16T14:37:36.169Z,6.65
2022-08-16T14:40:09.637Z,6.40
2022-08-16T14:42:37.581Z,6.97
2022-08-16T14:45:07.695Z,6.57
2022-08-16T14:47:38.412Z,6.60
2022-08-16T14:50:08.124Z,6.50
2022-08-16T14:52:54.644Z,6.07
2022-08-16T14:55:23.358Z,6.80
2022-08-16T14:57:54.452Z,7.05
2022-08-16T15:00:32.865Z,6.03
2022-08-16T15:03:09.620Z,6.88
2022-08-16T15:05:39.233Z,6.85
2022-08-16T15:08:07.205Z,7.07
2022-08-16T15:10:37.162Z,7.32
2022-08-16T15:13:06.702Z,7.78
2022-08-16T15:15:37.898Z,6.72
2022-08-16T15:18:06.395Z,6.78
2022-08-16T15:20:41.563Z,6.60
2022-08-16T15:23:09.270Z,6.00
2022-08-16T15:25:41.369Z,6.63
2022-08-16T15:28:23.916Z,6.00
2022-08-16T15:31:00.307Z,6.05
2022-08-16T15:33:29.323Z,6.30
2022-08-16T15:38:57.640Z,6.47
2022-08-16T15:41:29.099Z,6.65
2022-08-16T15:44:05.447Z,7.03
2022-08-16T15:46:57.036Z,7.93
2022-08-16T15:49:34.545Z,7.18
2022-08-16T15:52:29.925Z,6.57
2022-08-16T15:55:13.279Z,7.30
2022-08-16T15:57:51.814Z,6.82
2022-08-16T16:00:20.848Z,6.97
2022-08-16T16:02:49.458Z,6.93
2022-08-16T16:05:19.093Z,6.57
2022-08-16T16:07:56.478Z,6.77
2022-08-16T16:10:29.875Z,6.50
2022-08-16T16:13:00.505Z,6.82
2022-08-16T16:15:30.305Z,7.50
2022-08-16T16:17:58.105Z,7.40
2022-08-16T16:20:27.955Z,7.35
2022-08-16T16:23:06.293Z,7.53
2022-08-16T16:25:39.647Z,7.47
2022-08-16T16:28:51.212Z,7.60
2022-08-16T16:31:07.123Z,8.18
2022-08-16T16:33:38.525Z,7.45
2022-08-16T16:36:08.590Z,8.02
2022-08-16T16:38:39.298Z,9.02
2022-08-16T16:41:11.007Z,10.63
2022-08-16T16:43:40.851Z,15.65
2022-08-16T16:46:41.256Z,17.38
2022-08-16T16:48:56.729Z,19.15
2022-08-16T16:51:28.098Z,20.02
2022-08-16T16:53:57.175Z,20.70
2022-08-16T16:56:30.325Z,21.58
2022-08-16T16:59:04.795Z,21.88
2022-08-16T17:01:59.303Z,20.52
2022-08-16T17:04:31.337Z,20.00
2022-08-16T17:07:01.684Z,18.80
2022-08-16T17:09:29.745Z,16.92
2022-08-16T17:11:58.519Z,14.05
2022-08-16T17:17:14.257Z,13.13
2022-08-16T17:19:42.636Z,13.07
2022-08-16T17:22:14.648Z,12.25
2022-08-16T17:24:50.538Z,14.18
2022-08-16T17:27:32.838Z,13.32
2022-08-16T17:30:16.111Z,12.43
2022-08-16T17:32:50.688Z,13.60
2022-08-16T17:35:33.934Z,13.63
2022-08-16T17:38:07.547Z,13.20
2022-08-16T17:39:26.340Z,16.55
2022-08-16T17:40:54.996Z,12.95
2022-08-16T17:43:37.903Z,12.45
2022-08-16T17:46:51.122Z,12.43
2022-08-16T17:49:01.097Z,11.48
2022-08-16T17:51:29.019Z,11.68
2022-08-16T17:53:56.951Z,10.75
2022-08-16T17:56:24.803Z,10.35
2022-08-16T17:58:52.606Z,9.88
2022-08-16T18:01:20.445Z,10.45
2022-08-16T18:04:09.001Z,10.30
2022-08-16T18:06:38.872Z,10.98
2022-08-16T18:09:14.885Z,11.32
2022-08-16T18:11:44.707Z,9.93
2022-08-16T18:14:14.708Z,10.15
2022-08-16T18:16:43.041Z,9.70
2022-08-16T18:19:10.885Z,10.05
2022-08-16T18:21:57.028Z,10.68
2022-08-16T18:24:28.142Z,9.25
2022-08-16T18:26:55.905Z,10.75
2022-08-16T18:29:23.574Z,9.80
2022-08-16T18:31:54.181Z,9.80
2022-08-16T18:34:22.119Z,9.82
2022-08-16T18:36:51.169Z,10.20
2022-08-16T18:39:18.779Z,9.88
2022-08-16T18:41:49.386Z,10.18
2022-08-16T18:44:26.537Z,9.95
2022-08-16T18:46:55.720Z,10.05
2022-08-16T18:49:23.806Z,10.20
2022-08-16T18:51:55.968Z,10.05
2022-08-16T18:54:24.739Z,10.48
2022-08-16T18:56:57.516Z,11.02
2022-08-16T18:59:33.333Z,10.13
2022-08-16T19:02:05.238Z,11.00
2022-08-16T19:04:56.107Z,10.35
2022-08-16T19:07:30.766Z,11.90
2022-08-16T19:10:01.265Z,10.70
2022-08-16T19:12:37.930Z,11.40
2022-08-16T19:15:16.334Z,10.55
2022-08-16T19:17:46.326Z,11.70
2022-08-16T19:20:15.648Z,11.27
2022-08-16T19:25:47.439Z,12.00
2022-08-16T19:28:50.682Z,12.00
2022-08-16T19:31:16.927Z,11.80
2022-08-16T19:33:51.998Z,11.98
2022-08-16T19:36:30.546Z,12.18
2022-08-16T19:39:14.630Z,12.13
2022-08-16T19:41:44.500Z,11.27
2022-08-16T19:44:12.202Z,12.13
2022-08-16T19:46:43.682Z,12.23
2022-08-16T19:49:15.991Z,11.13
2022-08-16T19:51:47.711Z,11.60
2022-08-16T19:54:18.603Z,11.48
2022-08-16T19:56:46.564Z,13.27
2022-08-16T19:59:39.215Z,12.40
2022-08-16T20:02:02.741Z,13.00
2022-08-16T20:04:30.921Z,11.52
2022-08-16T20:06:58.753Z,13.00
2022-08-16T20:09:27.024Z,13.18
2022-08-16T20:11:55.078Z,13.23
2022-08-16T20:14:25.484Z,12.43
2022-08-16T20:16:55.391Z,11.73
2022-08-16T20:19:23.224Z,11.68
2022-08-16T20:21:51.212Z,12.00
2022-08-16T20:24:36.043Z,14.20
2022-08-16T20:27:06.269Z,11.55
2022-08-16T20:29:34.353Z,12.65
2022-08-16T20:32:04.186Z,12.05
2022-08-16T20:34:32.906Z,12.77
2022-08-16T20:37:00.537Z,12.80
2022-08-16T20:39:28.233Z,12.77
2022-08-16T20:41:55.835Z,13.55
2022-08-16T20:44:25.184Z,13.15
2022-08-16T20:46:53.517Z,14.95
2022-08-16T20:49:21.174Z,13.75
2022-08-16T20:51:50.850Z,13.65
2022-08-16T20:54:19.628Z,14.48
2022-08-16T20:56:47.252Z,14.60
2022-08-16T20:59:15.117Z,14.35
2022-08-16T21:01:46.893Z,14.05
2022-08-16T21:04:21.824Z,14.20
2022-08-16T21:06:54.099Z,15.68
2022-08-16T21:09:26.670Z,15.18
2022-08-16T21:11:55.164Z,15.98
2022-08-16T21:14:23.408Z,14.43
2022-08-16T21:16:51.079Z,15.55
2022-08-16T21:19:19.398Z,16.08
2022-08-16T21:21:47.101Z,15.32
2022-08-16T21:24:14.687Z,16.95
2022-08-16T21:26:53.927Z,15.10
2022-08-16T21:29:25.252Z,15.57
2022-08-16T21:32:10.750Z,15.32
2022-08-16T21:34:38.631Z,15.90
2022-08-16T21:37:06.591Z,15.02
2022-08-16T21:39:34.909Z,16.25
2022-08-16T21:42:02.617Z,15.57
2022-08-16T21:44:34.437Z,15.52
2022-08-16T21:47:06.926Z,14.68
2022-08-16T21:49:37.071Z,14.75
2022-08-16T21:52:05.834Z,15.90
2022-08-16T21:54:34.498Z,16.75
2022-08-16T21:57:02.238Z,14.77
2022-08-16T21:59:29.878Z,15.40
2022-08-16T22:01:57.656Z,15.10
2022-08-16T22:04:37.454Z,15.00
2022-08-16T22:07:06.587Z,14.50
2022-08-16T22:09:34.340Z,14.98
2022-08-16T22:12:01.990Z,15.68
2022-08-16T22:14:29.784Z,15.25
2022-08-16T22:16:57.379Z,16.15
2022-08-16T22:19:24.966Z,16.08
2022-08-16T22:21:52.610Z,14.57
2022-08-16T22:24:20.284Z,14.95
2022-08-16T22:26:48.015Z,15.10
2022-08-16T22:29:15.720Z,15.85
2022-08-16T22:31:44.049Z,14.85
2022-08-16T22:34:12.328Z,14.68
2022-08-16T22:36:40.027Z,14.18
2022-08-16T22:39:09.293Z,15.88
2022-08-16T22:41:37.385Z,15.40
2022-08-16T22:44:05.486Z,14.45
2022-08-16T22:46:35.001Z,14.52
2022-08-16T22:49:03.419Z,15.18
2022-08-16T22:51:31.402Z,14.38
2022-08-16T22:53:58.956Z,14.40
2022-08-16T22:56:27.524Z,13.77
2022-08-16T22:58:55.165Z,14.65
2022-08-16T23:01:24.125Z,14.52
2022-08-16T23:03:55.224Z,14.05
2022-08-16T23:08:51.654Z,14.13
2022-08-16T23:11:22.725Z,13.40
2022-08-16T23:13:54.040Z,15.70
2022-08-16T23:18:53.491Z,14.10
2022-08-16T23:21:21.401Z,14.57
2022-08-16T23:23:49.422Z,15.00
2022-08-16T23:26:44.353Z,14.95
2022-08-16T23:29:15.871Z,14.80
2022-08-16T23:31:54.355Z,14.18
2022-08-16T23:34:22.588Z,14.90
2022-08-16T23:36:50.335Z,14.15
2022-08-16T23:39:20.149Z,14.20
2022-08-16T23:41:48.278Z,13.82
2022-08-16T23:44:44.174Z,14.60
2022-08-16T23:47:06.404Z,13.75
2022-08-16T23:49:58.509Z,13.40
2022-08-16T23:52:54.739Z,13.55
2022-08-16T23:55:13.960Z,13.73
2022-08-16T23:57:48.749Z,13.75
